Time;durP1;ratioP1;P1;durP2;ratioP2;P2;SDS_P1;SDS_P2;PMS_P1;PMS_P2;Temp;Humidity;BMP_temperature;BMP_pressure;BME280_temperature;BME280_humidity;BME280_pressure;Samples;Min_cycle;Max_cycle;Signal;HPM_P1;HPM_P2
2022/06/14 00:01:44;;;;;;;15.73;5.20;;;;;;;;;;5047267;28;20033;-68
2022/06/14 00:04:09;;;;;;;14.03;5.60;;;;;;;;;;5051413;28;20032;-68
2022/06/14 00:06:34;;;;;;;15.07;5.07;;;;;;;;;;5050209;28;20051;-68
2022/06/14 00:08:59;;;;;;;11.77;5.53;;;;;;;;;;5051170;28;20040;-68
2022/06/14 00:11:26;;;;;;;16.67;5.00;;;;;;;;;;5049979;28;20064;-68
2022/06/14 00:13:52;;;;;;;13.00;5.20;;;;;;;;;;5049109;28;20021;-68
2022/06/14 00:16:17;;;;;;;15.67;5.50;;;;;;;;;;5049290;28;20516;-68
2022/06/14 00:18:42;;;;;;;13.20;4.80;;;;;;;;;;5050021;28;20025;-68
2022/06/14 00:21:08;;;;;;;12.90;5.47;;;;;;;;;;5050794;28;20045;-68
2022/06/14 00:23:33;;;;;;;11.37;5.37;;;;;;;;;;5050417;28;20032;-68
2022/06/14 00:25:59;;;;;;;15.30;6.03;;;;;;;;;;5049974;28;20037;-68
2022/06/14 00:28:26;;;;;;;16.03;6.60;;;;;;;;;;5051270;28;20017;-68
2022/06/14 00:30:53;;;;;;;15.17;6.43;;;;;;;;;;5048535;28;20074;-68
2022/06/14 00:33:18;;;;;;;15.50;6.10;;;;;;;;;;5049062;28;20111;-68
2022/06/14 00:35:44;;;;;;;11.90;6.37;;;;;;;;;;5049964;28;20099;-68
2022/06/14 00:38:10;;;;;;;16.97;5.73;;;;;;;;;;5050454;28;20029;-68
2022/06/14 00:40:36;;;;;;;18.90;5.90;;;;;;;;;;5049211;28;20039;-68
2022/06/14 00:43:03;;;;;;;18.40;6.03;;;;;;;;;;5050143;28;20037;-68
2022/06/14 00:45:29;;;;;;;15.07;6.43;;;;;;;;;;5050829;28;20041;-68
2022/06/14 00:48:04;;;;;;;13.27;6.63;;;;;;;;;;5031949;28;20119;-68
2022/06/14 00:50:31;;;;;;;14.07;6.63;;;;;;;;;;5050963;28;20140;-68
2022/06/14 00:52:59;;;;;;;12.87;5.50;;;;;;;;;;5054062;28;20028;-68
2022/06/14 00:55:28;;;;;;;14.50;5.97;;;;;;;;;;5054263;28;20500;-68
2022/06/14 00:57:59;;;;;;;12.57;5.00;;;;;;;;;;5052763;28;20082;-68
2022/06/14 01:00:31;;;;;;;11.30;5.30;;;;;;;;;;5053216;28;20461;-70
2022/06/14 01:02:59;;;;;;;10.93;5.50;;;;;;;;;;5052691;28;20171;-69
2022/06/14 01:06:05;;;;;;;12.47;6.00;;;;;;;;;;5053033;28;20497;-69
2022/06/14 01:08:15;;;;;;;18.33;7.53;;;;;;;;;;5051874;28;20029;-68
2022/06/14 01:10:43;;;;;;;14.23;7.03;;;;;;;;;;5052819;28;20024;-68
2022/06/14 01:13:08;;;;;;;14.60;6.87;;;;;;;;;;5053352;28;20040;-68
2022/06/14 01:15:34;;;;;;;13.83;6.73;;;;;;;;;;5053451;28;20414;-68
2022/06/14 01:18:07;;;;;;;16.17;6.63;;;;;;;;;;5036142;28;20052;-68
2022/06/14 01:20:33;;;;;;;20.40;7.60;;;;;;;;;;5061728;28;20033;-68
2022/06/14 01:22:58;;;;;;;17.80;6.60;;;;;;;;;;5051611;28;20506;-69
2022/06/14 01:25:25;;;;;;;13.53;5.30;;;;;;;;;;5053282;28;20120;-68
2022/06/14 01:27:51;;;;;;;14.07;6.20;;;;;;;;;;5053530;28;20055;-68
2022/06/14 01:30:21;;;;;;;14.23;6.43;;;;;;;;;;5052148;28;20017;-68
2022/06/14 01:32:49;;;;;;;14.67;6.43;;;;;;;;;;5043988;28;20032;-68
2022/06/14 01:35:17;;;;;;;13.57;6.83;;;;;;;;;;5051781;28;20115;-68
2022/06/14 01:37:44;;;;;;;15.93;7.37;;;;;;;;;;5048294;28;20476;-68
2022/06/14 01:40:10;;;;;;;18.53;7.83;;;;;;;;;;5053022;28;20077;-68
2022/06/14 01:42:54;;;;;;;19.63;8.50;;;;;;;;;;5052373;28;20163;-68
2022/06/14 01:45:22;;;;;;;18.50;7.50;;;;;;;;;;5053037;28;20025;-69
2022/06/14 01:47:50;;;;;;;17.63;7.93;;;;;;;;;;5052905;28;20020;-68
2022/06/14 01:53:48;;;;;;;16.93;8.30;;;;;;;;;;5037782;28;20044;-68
2022/06/14 01:56:17;;;;;;;19.93;8.20;;;;;;;;;;5026272;28;20567;-68
2022/06/14 01:58:46;;;;;;;23.13;9.97;;;;;;;;;;5052039;28;20017;-68
2022/06/14 02:01:32;;;;;;;21.83;9.90;;;;;;;;;;5050650;28;20086;-68
2022/06/14 02:06:50;;;;;;;27.23;11.07;;;;;;;;;;5050201;28;20032;-68
2022/06/14 02:09:18;;;;;;;27.13;10.57;;;;;;;;;;5040906;28;20021;-68
2022/06/14 02:11:43;;;;;;;20.83;10.97;;;;;;;;;;5051825;28;20025;-68
2022/06/14 02:14:16;;;;;;;23.80;11.07;;;;;;;;;;5053548;28;20017;-68
2022/06/14 02:17:01;;;;;;;20.03;8.70;;;;;;;;;;5050742;28;20017;-68
2022/06/14 02:19:33;;;;;;;22.33;11.17;;;;;;;;;;5042422;28;20452;-68
2022/06/14 02:22:02;;;;;;;27.87;11.33;;;;;;;;;;5051606;28;20056;-69
2022/06/14 02:24:31;;;;;;;21.27;10.30;;;;;;;;;;5052425;28;20013;-68
2022/06/14 02:27:22;;;;;;;19.30;9.73;;;;;;;;;;5052810;28;20090;-68
2022/06/14 02:29:49;;;;;;;16.90;6.80;;;;;;;;;;5047459;28;20082;-68
2022/06/14 02:32:19;;;;;;;17.57;8.00;;;;;;;;;;5052186;28;20032;-68
2022/06/14 02:35:00;;;;;;;16.37;7.50;;;;;;;;;;5051669;28;20024;-68
2022/06/14 02:37:38;;;;;;;20.87;6.63;;;;;;;;;;5051516;28;20021;-68
2022/06/14 02:40:27;;;;;;;18.03;9.80;;;;;;;;;;5052355;28;20107;-68
2022/06/14 02:42:56;;;;;;;20.77;9.17;;;;;;;;;;5051163;28;20027;-68
2022/06/14 02:45:27;;;;;;;23.70;10.53;;;;;;;;;;5051656;28;20615;-69
2022/06/14 02:48:13;;;;;;;21.88;12.15;;;;;;;;;;5051632;28;20393;-69
2022/06/14 02:50:38;;;;;;;25.73;11.80;;;;;;;;;;5050648;28;20056;-70
2022/06/14 02:53:09;;;;;;;23.20;12.17;;;;;;;;;;5049261;28;20020;-70
2022/06/14 02:55:39;;;;;;;21.50;10.93;;;;;;;;;;5051499;28;20032;-70
2022/06/14 02:58:04;;;;;;;19.50;11.33;;;;;;;;;;5044680;28;20040;-70
2022/06/14 03:00:33;;;;;;;24.17;11.33;;;;;;;;;;5049128;28;20945;-70
2022/06/14 03:02:58;;;;;;;22.40;10.80;;;;;;;;;;5046102;28;20029;-70
2022/06/14 03:05:32;;;;;;;23.50;11.67;;;;;;;;;;5051759;28;20483;-70
2022/06/14 03:08:13;;;;;;;21.43;11.10;;;;;;;;;;5049907;28;20472;-70
2022/06/14 03:10:53;;;;;;;17.83;8.13;;;;;;;;;;5030316;28;20033;-70
2022/06/14 03:13:21;;;;;;;15.10;8.13;;;;;;;;;;5050934;28;20025;-71
2022/06/14 03:15:53;;;;;;;14.90;8.00;;;;;;;;;;5051665;28;20044;-70
2022/06/14 03:18:30;;;;;;;14.03;7.17;;;;;;;;;;5050564;28;20039;-71
2022/06/14 03:20:59;;;;;;;13.47;7.30;;;;;;;;;;5049886;28;20029;-70
2022/06/14 03:23:31;;;;;;;13.87;6.63;;;;;;;;;;5050478;28;20039;-70
2022/06/14 03:26:14;;;;;;;15.52;7.45;;;;;;;;;;5049083;28;20198;-70
2022/06/14 03:28:46;;;;;;;17.20;7.53;;;;;;;;;;5035294;28;20079;-70
2022/06/14 03:31:20;;;;;;;18.25;7.60;;;;;;;;;;5050155;28;20017;-70
2022/06/14 03:33:47;;;;;;;17.70;8.60;;;;;;;;;;5051446;28;20234;-70
2022/06/14 03:36:13;;;;;;;18.23;7.40;;;;;;;;;;5050852;28;20238;-70
2022/06/14 03:38:53;;;;;;;15.77;8.30;;;;;;;;;;5050713;28;20052;-70
2022/06/14 03:41:21;;;;;;;16.47;8.80;;;;;;;;;;5049713;28;20029;-70
2022/06/14 03:43:46;;;;;;;15.80;8.97;;;;;;;;;;5050818;28;20036;-70
2022/06/14 03:46:25;;;;;;;15.10;8.00;;;;;;;;;;5049760;28;20064;-70
2022/06/14 03:48:54;;;;;;;17.43;8.60;;;;;;;;;;5050564;28;20025;-70
2022/06/14 03:51:25;;;;;;;13.70;7.80;;;;;;;;;;5048773;28;20029;-70
2022/06/14 03:54:04;;;;;;;16.80;8.85;;;;;;;;;;5046863;28;20027;-70
2022/06/14 03:56:48;;;;;;;17.83;8.30;;;;;;;;;;5050245;28;20057;-70
2022/06/14 03:59:29;;;;;;;19.33;7.53;;;;;;;;;;5044228;28;20132;-70
2022/06/14 04:02:02;;;;;;;15.95;7.38;;;;;;;;;;5050252;28;20040;-70
2022/06/14 04:04:40;;;;;;;16.43;7.50;;;;;;;;;;5050076;28;20040;-70
2022/06/14 04:07:24;;;;;;;18.77;7.30;;;;;;;;;;5048136;28;20021;-70
2022/06/14 04:09:59;;;;;;;17.27;7.67;;;;;;;;;;5047493;28;20021;-70
2022/06/14 04:12:32;;;;;;;15.03;7.43;;;;;;;;;;5050292;28;20017;-70
2022/06/14 04:14:57;;;;;;;12.50;6.93;;;;;;;;;;5043878;28;20592;-70
2022/06/14 04:17:35;;;;;;;16.30;7.20;;;;;;;;;;5045622;28;20139;-70
2022/06/14 04:20:08;;;;;;;15.77;6.60;;;;;;;;;;5050132;28;20016;-70
2022/06/14 04:22:42;;;;;;;14.13;6.57;;;;;;;;;;5050512;28;20403;-70
2022/06/14 04:25:26;;;;;;;17.00;6.17;;;;;;;;;;5052910;28;21648;-70
2022/06/14 04:28:02;;;;;;;13.30;6.50;;;;;;;;;;5048430;28;20040;-70
2022/06/14 04:30:35;;;;;;;13.87;5.47;;;;;;;;;;5053791;28;20025;-70
2022/06/14 04:33:07;;;;;;;12.40;5.30;;;;;;;;;;5054468;28;20059;-70
2022/06/14 04:35:32;;;;;;;;;;;;;;;;;;5054129;28;20028;-70
2022/06/14 04:38:03;;;;;;;7.72;4.20;;;;;;;;;;5052642;28;19927;-70
2022/06/14 04:40:31;;;;;;;12.50;3.87;;;;;;;;;;5053528;28;20106;-72
2022/06/14 04:43:17;;;;;;;10.20;4.23;;;;;;;;;;5054253;28;20472;-72
2022/06/14 04:45:57;;;;;;;11.40;3.70;;;;;;;;;;5052040;28;20369;-72
2022/06/14 04:48:25;;;;;;;9.40;4.07;;;;;;;;;;5053477;28;20020;-72
2022/06/14 04:50:54;;;;;;;9.68;3.97;;;;;;;;;;5052793;28;20488;-72
2022/06/14 04:53:20;;;;;;;10.95;3.83;;;;;;;;;;5053694;28;20013;-72
2022/06/14 04:55:48;;;;;;;14.30;3.40;;;;;;;;;;5053429;28;20491;-72
2022/06/14 04:58:20;;;;;;;13.07;3.97;;;;;;;;;;5053482;28;20361;-72
2022/06/14 05:01:00;;;;;;;11.95;4.05;;;;;;;;;;5050899;28;20021;-72
2022/06/14 05:03:35;;;;;;;11.88;3.60;;;;;;;;;;5050885;28;20025;-72
2022/06/14 05:06:19;;;;;;;8.75;3.30;;;;;;;;;;5043295;28;20028;-72
2022/06/14 05:08:47;;;;;;;10.05;3.78;;;;;;;;;;5051322;28;20024;-72
2022/06/14 05:11:16;;;;;;;10.30;3.60;;;;;;;;;;5052882;28;20100;-72
2022/06/14 05:13:41;;;;;;;13.63;3.72;;;;;;;;;;5029279;28;20021;-72
2022/06/14 05:16:14;;;;;;;11.23;3.45;;;;;;;;;;5051841;28;20086;-72
2022/06/14 05:18:47;;;;;;;13.07;3.92;;;;;;;;;;5054023;28;20016;-72
2022/06/14 05:21:17;;;;;;;10.60;3.50;;;;;;;;;;5053906;28;20047;-72
2022/06/14 05:23:47;;;;;;;11.63;3.90;;;;;;;;;;5054467;28;20021;-72
2022/06/14 05:26:25;;;;;;;9.27;3.70;;;;;;;;;;5053074;28;20396;-72
2022/06/14 05:29:09;;;;;;;10.52;3.60;;;;;;;;;;5040740;28;20378;-72
2022/06/14 05:31:49;;;;;;;9.13;3.10;;;;;;;;;;5043819;28;20017;-72
2022/06/14 05:34:17;;;;;;;12.73;3.60;;;;;;;;;;5041044;28;20035;-72
2022/06/14 05:36:56;;;;;;;10.00;3.20;;;;;;;;;;5051783;28;20473;-72
2022/06/14 05:39:29;;;;;;;8.55;2.83;;;;;;;;;;5048768;28;20021;-72
2022/06/14 05:42:00;;;;;;;10.98;3.10;;;;;;;;;;5050486;28;20469;-72
2022/06/14 05:44:29;;;;;;;13.32;3.28;;;;;;;;;;5054063;28;20100;-72
2022/06/14 05:46:56;;;;;;;12.15;3.38;;;;;;;;;;5053585;28;20037;-72
2022/06/14 05:49:29;;;;;;;9.85;3.13;;;;;;;;;;5041194;28;20389;-72
2022/06/14 05:51:59;;;;;;;11.45;3.20;;;;;;;;;;5053258;28;20473;-72
2022/06/14 05:54:27;;;;;;;15.65;3.40;;;;;;;;;;5053792;28;20016;-72
2022/06/14 05:57:15;;;;;;;9.10;3.33;;;;;;;;;;5053783;28;20499;-72
2022/06/14 05:59:43;;;;;;;8.80;2.90;;;;;;;;;;5042591;28;20063;-72
2022/06/14 06:02:31;;;;;;;11.43;3.20;;;;;;;;;;5051326;28;20160;-72
2022/06/14 06:05:05;;;;;;;9.82;2.95;;;;;;;;;;5033867;28;20018;-72
2022/06/14 06:07:32;;;;;;;13.95;3.10;;;;;;;;;;5033706;28;20469;-72
2022/06/14 06:10:11;;;;;;;13.68;3.67;;;;;;;;;;5045143;28;20350;-72
2022/06/14 06:12:48;;;;;;;11.88;3.15;;;;;;;;;;5053239;28;20035;-72
2022/06/14 06:15:17;;;;;;;14.25;3.78;;;;;;;;;;5052089;28;20396;-72
2022/06/14 06:18:04;;;;;;;11.80;2.90;;;;;;;;;;5050678;28;20017;-72
2022/06/14 06:20:34;;;;;;;12.43;3.40;;;;;;;;;;5052054;28;20035;-72
2022/06/14 06:23:10;;;;;;;10.47;3.00;;;;;;;;;;5050163;28;20096;-72
2022/06/14 06:25:37;;;;;;;11.23;2.92;;;;;;;;;;5043060;28;20290;-72
2022/06/14 06:28:09;;;;;;;12.98;2.92;;;;;;;;;;5052516;28;20088;-72
2022/06/14 06:30:51;;;;;;;12.77;2.80;;;;;;;;;;5051223;28;20033;-72
2022/06/14 06:33:18;;;;;;;13.77;3.05;;;;;;;;;;5052817;28;20048;-73
2022/06/14 06:35:53;;;;;;;9.73;2.95;;;;;;;;;;5053004;28;20028;-72
2022/06/14 06:38:39;;;;;;;15.00;2.80;;;;;;;;;;5053064;28;20021;-72
2022/06/14 06:43:57;;;;;;;11.75;2.45;;;;;;;;;;5051992;28;20024;-72
2022/06/14 06:46:25;;;;;;;10.48;2.50;;;;;;;;;;5052390;28;20025;-72
2022/06/14 06:48:56;;;;;;;10.38;2.22;;;;;;;;;;5051774;28;20025;-72
2022/06/14 06:51:24;;;;;;;10.82;2.35;;;;;;;;;;5052275;28;20052;-72
2022/06/14 06:53:52;;;;;;;7.40;2.08;;;;;;;;;;5052891;28;20023;-72
2022/06/14 06:56:43;;;;;;;10.60;2.28;;;;;;;;;;5052872;28;20444;-72
2022/06/14 06:59:29;;;;;;;9.70;2.85;;;;;;;;;;5043681;28;20174;-72
2022/06/14 07:01:57;;;;;;;10.82;2.35;;;;;;;;;;5051660;28;20048;-73
2022/06/14 07:05:03;;;;;;;9.60;2.15;;;;;;;;;;5052144;28;20055;-73
2022/06/14 07:07:21;;;;;;;11.73;1.85;;;;;;;;;;5052067;28;20064;-73
2022/06/14 07:09:58;;;;;;;9.68;2.33;;;;;;;;;;5052523;28;20044;-73
2022/06/14 07:12:29;;;;;;;9.45;2.10;;;;;;;;;;5051942;28;20104;-73
2022/06/14 07:14:57;;;;;;;9.23;2.10;;;;;;;;;;5052322;28;20009;-73
2022/06/14 07:17:33;;;;;;;10.13;2.50;;;;;;;;;;5051131;28;20055;-73
2022/06/14 07:20:12;;;;;;;10.55;2.40;;;;;;;;;;5052294;28;20032;-73
2022/06/14 07:22:47;;;;;;;6.80;1.77;;;;;;;;;;5034040;28;20429;-73
2022/06/14 07:25:24;;;;;;;7.65;1.75;;;;;;;;;;5052081;28;20045;-72
2022/06/14 07:28:10;;;;;;;10.70;2.00;;;;;;;;;;5053941;28;20379;-72
2022/06/14 07:30:39;;;;;;;6.15;1.70;;;;;;;;;;5051262;28;20021;-72
2022/06/14 07:33:05;;;;;;;8.88;1.90;;;;;;;;;;5050032;28;20045;-72
2022/06/14 07:35:35;;;;;;;11.07;2.05;;;;;;;;;;5050933;28;20448;-73
2022/06/14 07:38:13;;;;;;;12.00;2.07;;;;;;;;;;5043665;28;20384;-72
2022/06/14 07:40:48;;;;;;;8.98;2.10;;;;;;;;;;5045012;28;20465;-72
2022/06/14 07:43:23;;;;;;;13.07;2.22;;;;;;;;;;5049254;28;20480;-72
2022/06/14 07:45:49;;;;;;;8.30;1.88;;;;;;;;;;5047707;28;20108;-72
2022/06/14 07:48:31;;;;;;;7.70;1.80;;;;;;;;;;5051603;28;20029;-72
2022/06/14 07:51:09;;;;;;;9.43;2.10;;;;;;;;;;5050950;28;20030;-72
2022/06/14 07:53:37;;;;;;;10.88;2.15;;;;;;;;;;5045492;28;20017;-72
2022/06/14 07:56:12;;;;;;;9.40;1.63;;;;;;;;;;5050966;28;20465;-73
2022/06/14 07:58:50;;;;;;;12.13;1.92;;;;;;;;;;5051224;28;20028;-73
2022/06/14 08:01:19;;;;;;;10.07;1.70;;;;;;;;;;5051542;28;20058;-72
2022/06/14 08:03:44;;;;;;;9.15;2.30;;;;;;;;;;5051459;28;20035;-72
2022/06/14 08:06:12;;;;;;;13.48;2.78;;;;;;;;;;5051497;28;20419;-72
2022/06/14 08:08:40;;;;;;;10.95;2.10;;;;;;;;;;5050979;28;20021;-72
2022/06/14 08:11:15;;;;;;;8.93;1.92;;;;;;;;;;5051820;28;20016;-72
2022/06/14 08:13:43;;;;;;;11.40;2.03;;;;;;;;;;5051545;28;20032;-72
2022/06/14 08:16:09;;;;;;;8.20;2.08;;;;;;;;;;5051305;28;20063;-72
2022/06/14 08:18:37;;;;;;;10.02;2.60;;;;;;;;;;5050988;28;20025;-72
2022/06/14 08:21:09;;;;;;;11.60;1.92;;;;;;;;;;5051555;28;20044;-72
2022/06/14 08:23:49;;;;;;;8.60;1.80;;;;;;;;;;5051563;28;20025;-72
2022/06/14 08:26:24;;;;;;;10.30;2.03;;;;;;;;;;5047038;28;20443;-73
2022/06/14 08:29:08;;;;;;;6.93;1.75;;;;;;;;;;5050497;28;20032;-73
2022/06/14 08:31:40;;;;;;;11.65;2.20;;;;;;;;;;5050527;28;20024;-73
2022/06/14 08:34:12;;;;;;;8.20;1.60;;;;;;;;;;5047287;28;20389;-73
2022/06/14 08:36:43;;;;;;;9.00;1.67;;;;;;;;;;5051255;28;20492;-72
2022/06/14 08:39:11;;;;;;;10.15;1.98;;;;;;;;;;5051130;28;20104;-72
2022/06/14 08:41:40;;;;;;;7.03;1.73;;;;;;;;;;5050337;28;20025;-72
2022/06/14 08:44:12;;;;;;;14.25;2.10;;;;;;;;;;5050829;28;20037;-73
2022/06/14 08:46:37;;;;;;;10.98;2.17;;;;;;;;;;5051013;28;20384;-72
2022/06/14 08:49:15;;;;;;;9.25;1.75;;;;;;;;;;5050849;28;20025;-72
2022/06/14 08:51:59;;;;;;;8.60;2.25;;;;;;;;;;5050995;28;20041;-72
2022/06/14 08:54:50;;;;;;;9.95;2.00;;;;;;;;;;5050838;28;20130;-72
2022/06/14 08:57:27;;;;;;;10.10;2.28;;;;;;;;;;5045715;28;20484;-72
2022/06/14 08:59:59;;;;;;;10.02;1.90;;;;;;;;;;5059463;28;20035;-72
2022/06/14 09:02:34;;;;;;;9.50;1.80;;;;;;;;;;5049675;28;20074;-72
2022/06/14 09:05:02;;;;;;;10.25;2.45;;;;;;;;;;5049743;28;20147;-72
2022/06/14 09:07:45;;;;;;;8.40;1.88;;;;;;;;;;5050629;28;20029;-72
2022/06/14 09:10:16;;;;;;;12.40;2.20;;;;;;;;;;5050810;28;20082;-72
2022/06/14 09:13:02;;;;;;;7.63;1.60;;;;;;;;;;5053323;28;20027;-72
2022/06/14 09:15:27;;;;;;;7.30;1.50;;;;;;;;;;5023371;28;20043;-73
2022/06/14 09:17:55;;;;;;;8.20;1.60;;;;;;;;;;5053826;28;20166;-73
2022/06/14 09:20:50;;;;;;;7.40;1.70;;;;;;;;;;5054542;28;20048;-73
2022/06/14 09:23:18;;;;;;;6.57;1.48;;;;;;;;;;4999516;28;20031;-73
2022/06/14 09:25:57;;;;;;;5.93;1.42;;;;;;;;;;5052742;28;20024;-73
2022/06/14 09:28:22;;;;;;;5.25;1.38;;;;;;;;;;5054802;28;20021;-73
2022/06/14 09:31:14;;;;;;;8.65;2.05;;;;;;;;;;5054749;28;20024;-73
2022/06/14 09:33:54;;;;;;;9.35;1.95;;;;;;;;;;5050045;28;20037;-72
2022/06/14 09:36:35;;;;;;;8.73;1.90;;;;;;;;;;5053947;28;20429;-72
2022/06/14 09:39:00;;;;;;;8.25;1.80;;;;;;;;;;5054674;28;20032;-72
2022/06/14 09:41:38;;;;;;;9.40;1.88;;;;;;;;;;5036120;28;20389;-72
2022/06/14 09:44:21;;;;;;;10.57;2.28;;;;;;;;;;5053679;28;20033;-72
2022/06/14 09:47:04;;;;;;;8.88;1.90;;;;;;;;;;5052909;28;20049;-72
2022/06/14 09:49:48;;;;;;;11.07;2.17;;;;;;;;;;5044891;28;20074;-72
2022/06/14 09:52:14;;;;;;;10.30;1.90;;;;;;;;;;5034143;28;20021;-72
2022/06/14 09:54:58;;;;;;;8.77;1.70;;;;;;;;;;5051424;28;20388;-73
2022/06/14 09:57:26;;;;;;;7.47;1.70;;;;;;;;;;5053323;28;20048;-72
2022/06/14 09:59:57;;;;;;;11.73;2.30;;;;;;;;;;5054322;28;20040;-72
2022/06/14 10:02:22;;;;;;;8.05;1.63;;;;;;;;;;5032703;28;20029;-72
2022/06/14 10:05:10;;;;;;;6.22;1.20;;;;;;;;;;5053303;28;20025;-73
2022/06/14 10:07:54;;;;;;;7.07;1.38;;;;;;;;;;5024207;28;20032;-73
2022/06/14 10:10:27;;;;;;;9.40;1.63;;;;;;;;;;5053335;28;20029;-73
2022/06/14 10:12:52;;;;;;;7.75;1.70;;;;;;;;;;5052215;28;20017;-73
2022/06/14 10:15:21;;;;;;;6.55;1.58;;;;;;;;;;5050815;28;20028;-73
2022/06/14 10:18:05;;;;;;;9.57;1.88;;;;;;;;;;5053445;28;20372;-72
2022/06/14 10:20:42;;;;;;;8.05;1.65;;;;;;;;;;5053344;28;20504;-72
2022/06/14 10:23:17;;;;;;;8.75;1.80;;;;;;;;;;5053264;28;20100;-72
2022/06/14 10:28:11;;;;;;;6.07;1.40;;;;;;;;;;5052386;28;20066;-72
2022/06/14 10:28:48;;;;;;;9.32;1.83;;;;;;;;;;5043631;28;20040;-72
2022/06/14 10:31:21;;;;;;;7.53;1.60;;;;;;;;;;5019141;28;20389;-72
2022/06/14 10:34:02;;;;;;;7.50;1.77;;;;;;;;;;5052258;28;20024;-72
2022/06/14 10:36:36;;;;;;;8.05;1.45;;;;;;;;;;5034294;28;20082;-72
2022/06/14 10:39:20;;;;;;;6.13;1.48;;;;;;;;;;5052799;28;20028;-72
2022/06/14 10:42:06;;;;;;;6.50;1.60;;;;;;;;;;5051663;28;20503;-72
2022/06/14 10:44:51;;;;;;;9.75;1.98;;;;;;;;;;5050939;28;20021;-72
2022/06/14 10:47:35;;;;;;;5.93;1.58;;;;;;;;;;5051298;28;20117;-72
2022/06/14 10:50:03;;;;;;;8.85;1.85;;;;;;;;;;5051173;28;20021;-72
2022/06/14 10:52:46;;;;;;;8.13;1.58;;;;;;;;;;5052677;28;20048;-72
2022/06/14 10:55:15;;;;;;;7.97;1.95;;;;;;;;;;5032906;28;20022;-72
2022/06/14 10:57:40;;;;;;;9.20;1.90;;;;;;;;;;5033985;28;20428;-72
2022/06/14 11:00:29;;;;;;;5.70;1.50;;;;;;;;;;5052262;28;20029;-73
2022/06/14 11:02:58;;;;;;;9.57;1.85;;;;;;;;;;5051353;28;20082;-72
2022/06/14 11:05:35;;;;;;;6.68;1.65;;;;;;;;;;5052373;28;20439;-72
2022/06/14 11:08:12;;;;;;;7.72;1.65;;;;;;;;;;5051145;28;20021;-72
2022/06/14 11:10:43;;;;;;;12.02;2.15;;;;;;;;;;5052280;28;20377;-72
2022/06/14 11:13:31;;;;;;;9.32;1.83;;;;;;;;;;5052325;28;20492;-72
2022/06/14 11:16:15;;;;;;;5.75;1.48;;;;;;;;;;5020649;28;20107;-72
2022/06/14 11:18:40;;;;;;;7.28;1.50;;;;;;;;;;5046846;28;20035;-72
2022/06/14 11:21:32;;;;;;;9.02;1.58;;;;;;;;;;5050079;28;20400;-73
2022/06/14 11:23:57;;;;;;;;;;;;;;;;;;5047165;28;20035;-72
2022/06/14 11:26:29;;;;;;;8.48;1.60;;;;;;;;;;5050748;28;19913;-72
2022/06/14 11:29:13;;;;;;;8.30;1.65;;;;;;;;;;5052456;28;20028;-73
2022/06/14 11:31:49;;;;;;;8.77;1.90;;;;;;;;;;5049701;28;20024;-72
2022/06/14 11:34:17;;;;;;;8.45;1.83;;;;;;;;;;5051615;28;20025;-72
2022/06/14 11:36:44;;;;;;;6.10;1.50;;;;;;;;;;5052031;28;20377;-72
2022/06/14 11:39:24;;;;;;;8.50;1.85;;;;;;;;;;5048933;28;20029;-72
2022/06/14 11:41:51;;;;;;;7.53;2.03;;;;;;;;;;5051576;28;20025;-72
2022/06/14 11:44:35;;;;;;;6.15;1.50;;;;;;;;;;5051450;28;20163;-72
2022/06/14 11:47:06;;;;;;;9.38;1.50;;;;;;;;;;5036617;28;20029;-72
2022/06/14 11:49:32;;;;;;;6.57;1.67;;;;;;;;;;5043399;28;20461;-72
2022/06/14 11:52:06;;;;;;;6.22;1.40;;;;;;;;;;5050763;28;20036;-72
2022/06/14 11:54:50;;;;;;;8.85;1.70;;;;;;;;;;5046230;28;20474;-72
2022/06/14 11:57:35;;;;;;;14.88;2.47;;;;;;;;;;5041775;28;20021;-72
2022/06/14 12:00:00;;;;;;;7.70;1.80;;;;;;;;;;5050746;28;20028;-72
2022/06/14 12:02:29;;;;;;;6.25;1.48;;;;;;;;;;5046346;28;20074;-72
2022/06/14 12:05:13;;;;;;;9.10;1.45;;;;;;;;;;5045955;28;20051;-72
2022/06/14 12:07:39;;;;;;;9.07;1.88;;;;;;;;;;5044568;28;20072;-73
2022/06/14 12:10:29;;;;;;;5.57;1.42;;;;;;;;;;5049122;28;20021;-73
2022/06/14 12:13:09;;;;;;;6.20;1.40;;;;;;;;;;5049652;28;20025;-73
2022/06/14 12:15:37;;;;;;;6.30;1.50;;;;;;;;;;5044774;28;20037;-73
2022/06/14 12:18:07;;;;;;;4.93;1.45;;;;;;;;;;5045685;28;20029;-71
2022/06/14 12:20:37;;;;;;;6.05;1.52;;;;;;;;;;5047385;28;20025;-71
2022/06/14 12:23:07;;;;;;;6.90;1.60;;;;;;;;;;5033595;28;20083;-72
2022/06/14 12:28:30;;;;;;;5.18;1.35;;;;;;;;;;5042450;28;20388;-72
2022/06/14 12:30:59;;;;;;;8.43;1.80;;;;;;;;;;5044310;28;20122;-72
2022/06/14 12:33:31;;;;;;;6.35;1.42;;;;;;;;;;5050904;28;20393;-72
2022/06/14 12:36:17;;;;;;;7.25;1.50;;;;;;;;;;5050845;28;20017;-72
2022/06/14 12:38:44;;;;;;;7.15;1.70;;;;;;;;;;5050608;28;20155;-72
2022/06/14 12:41:16;;;;;;;8.55;1.83;;;;;;;;;;5060996;28;20050;-72
2022/06/14 12:43:51;;;;;;;5.25;1.67;;;;;;;;;;5071316;28;20074;-72
2022/06/14 12:46:19;;;;;;;4.50;1.20;;;;;;;;;;5072497;28;20064;-72
2022/06/14 12:48:44;;;;;;;7.55;1.48;;;;;;;;;;5068830;28;20070;-72
2022/06/14 12:51:11;;;;;;;6.25;1.63;;;;;;;;;;5055015;28;20032;-72
2022/06/14 12:53:36;;;;;;;7.72;1.50;;;;;;;;;;5055279;28;20036;-72
2022/06/14 12:56:17;;;;;;;6.10;1.77;;;;;;;;;;5054738;28;20021;-72
2022/06/14 12:59:03;;;;;;;8.68;1.70;;;;;;;;;;5054362;28;20385;-72
2022/06/14 13:01:50;;;;;;;7.13;1.42;;;;;;;;;;5054710;28;20039;-72
2022/06/14 13:04:18;;;;;;;6.43;1.55;;;;;;;;;;5053670;28;20025;-72
2022/06/14 13:06:55;;;;;;;9.85;2.30;;;;;;;;;;5053837;28;20051;-72
2022/06/14 13:09:21;;;;;;;6.68;1.48;;;;;;;;;;5053409;28;20068;-72
2022/06/14 13:11:52;;;;;;;6.32;1.73;;;;;;;;;;5053301;28;20418;-72
2022/06/14 13:14:17;;;;;;;9.90;2.00;;;;;;;;;;5053963;28;20028;-72
2022/06/14 13:17:01;;;;;;;7.60;1.77;;;;;;;;;;5046998;28;20041;-72
2022/06/14 13:19:32;;;;;;;8.40;1.70;;;;;;;;;;5053742;28;20744;-73
2022/06/14 13:22:17;;;;;;;8.40;1.80;;;;;;;;;;5053882;28;20048;-73
2022/06/14 13:25:01;;;;;;;8.43;1.65;;;;;;;;;;5052175;28;20036;-73
2022/06/14 13:27:30;;;;;;;8.15;1.60;;;;;;;;;;5053100;28;20534;-73
2022/06/14 13:30:02;;;;;;;5.22;1.55;;;;;;;;;;5051190;28;20109;-73
2022/06/14 13:32:45;;;;;;;6.20;1.65;;;;;;;;;;5045241;28;20024;-73
2022/06/14 13:35:23;;;;;;;4.53;1.23;;;;;;;;;;5064713;28;20157;-73
2022/06/14 13:38:03;;;;;;;7.78;1.60;;;;;;;;;;5074577;28;20013;-73
2022/06/14 13:40:32;;;;;;;8.05;1.60;;;;;;;;;;5072068;28;20531;-73
2022/06/14 13:43:04;;;;;;;7.30;1.77;;;;;;;;;;5053303;28;20048;-73
2022/06/14 13:45:38;;;;;;;6.32;1.48;;;;;;;;;;5052870;28;20067;-71
2022/06/14 13:48:06;;;;;;;7.10;1.50;;;;;;;;;;5052619;28;20485;-71
2022/06/14 13:50:36;;;;;;;9.35;1.52;;;;;;;;;;5051869;28;20013;-71
2022/06/14 13:53:10;;;;;;;5.72;1.48;;;;;;;;;;5046678;28;20028;-71
2022/06/14 13:55:48;;;;;;;7.43;1.65;;;;;;;;;;5050949;28;20017;-71
2022/06/14 13:58:16;;;;;;;9.80;1.40;;;;;;;;;;5052496;28;20032;-71
2022/06/14 14:00:41;;;;;;;6.55;1.52;;;;;;;;;;5049906;28;20022;-71
2022/06/14 14:03:12;;;;;;;6.70;1.50;;;;;;;;;;5045291;28;20134;-71
2022/06/14 14:05:40;;;;;;;7.47;1.63;;;;;;;;;;5059830;28;20503;-71
2022/06/14 14:08:06;;;;;;;7.78;1.50;;;;;;;;;;5062502;28;20017;-71
2022/06/14 14:10:49;;;;;;;8.45;1.50;;;;;;;;;;5067329;28;20029;-71
2022/06/14 14:13:17;;;;;;;5.88;1.65;;;;;;;;;;5073529;28;20059;-71
2022/06/14 14:16:08;;;;;;;7.03;1.27;;;;;;;;;;5073309;28;20042;-71
2022/06/14 14:18:39;;;;;;;7.03;1.60;;;;;;;;;;5040580;28;20115;-71
2022/06/14 14:21:04;;;;;;;;;;;;;;;;;;5073967;28;20043;-71
2022/06/14 14:23:39;;;;;;;6.57;1.75;;;;;;;;;;5057137;28;20303;-73
2022/06/14 14:26:11;;;;;;;4.97;1.50;;;;;;;;;;5053431;28;20024;-71
2022/06/14 14:29:15;;;;;;;7.68;1.52;;;;;;;;;;5053516;28;20420;-71
2022/06/14 14:31:44;;;;;;;4.97;1.55;;;;;;;;;;4971971;28;20073;-71
2022/06/14 14:34:30;;;;;;;7.85;1.58;;;;;;;;;;4971697;28;20050;-71
2022/06/14 14:37:14;;;;;;;8.88;1.70;;;;;;;;;;4970638;28;20067;-71
2022/06/14 14:39:51;;;;;;;6.13;1.50;;;;;;;;;;4971346;28;20023;-71
2022/06/14 14:42:25;;;;;;;6.10;1.30;;;;;;;;;;4971622;28;20031;-71
2022/06/14 14:44:56;;;;;;;5.28;1.35;;;;;;;;;;4972015;28;20118;-71
2022/06/14 14:47:27;;;;;;;5.30;1.40;;;;;;;;;;4971591;28;20528;-71
2022/06/14 14:50:01;;;;;;;8.77;1.80;;;;;;;;;;4971549;28;20126;-72
2022/06/14 14:52:30;;;;;;;5.72;1.25;;;;;;;;;;4972073;28;20622;-72
2022/06/14 14:55:04;;;;;;;8.32;1.45;;;;;;;;;;4971754;28;20026;-72
2022/06/14 14:57:42;;;;;;;5.93;1.30;;;;;;;;;;4971443;28;20383;-72
2022/06/14 15:00:19;;;;;;;4.63;1.55;;;;;;;;;;4971517;28;20037;-72
2022/06/14 15:05:53;;;;;;;5.07;1.35;;;;;;;;;;5048169;28;20154;-72
2022/06/14 15:08:24;;;;;;;5.50;1.48;;;;;;;;;;5050247;28;20028;-72
2022/06/14 15:11:03;;;;;;;5.85;1.42;;;;;;;;;;5050303;28;20104;-72
2022/06/14 15:13:33;;;;;;;4.57;1.23;;;;;;;;;;5048775;28;20033;-72
2022/06/14 15:15:58;;;;;;;5.65;1.38;;;;;;;;;;5052699;28;20048;-71
2022/06/14 15:21:16;;;;;;;5.13;1.30;;;;;;;;;;5052488;28;20109;-72
2022/06/14 15:23:47;;;;;;;5.63;1.20;;;;;;;;;;5052415;28;20025;-72
2022/06/14 15:26:17;;;;;;;7.10;1.67;;;;;;;;;;5051810;28;20112;-72
2022/06/14 15:28:48;;;;;;;6.85;1.40;;;;;;;;;;5052394;28;20066;-72
2022/06/14 15:31:25;;;;;;;6.38;1.25;;;;;;;;;;5051630;28;20062;-72